AirNav  
 
 1369 users online  

T78 Liberty Municipal Airport
Liberty, Texas, USA

GOING TO LIBERTY?


FAA INFORMATION EFFECTIVE 09 NOVEMBER 2017

Location

FAA Identifier: T78
Lat/Long: 30-04-40.1000N / 094-41-54.8000W
30-04.668333N / 094-41.913333W
30.0778056 / -94.6985556
(estimated)
Elevation: 69.5 ft. / 21.2 m (surveyed)
Variation: 05E (1995)
From city: 6 miles NE of LIBERTY, TX
Time zone: UTC -6 (UTC -5 during Daylight Saving Time)
Zip code: 77575

Airport Operations

Airport use: Open to the public
Activation date: 08/1959
Control tower: no
ARTCC: HOUSTON CENTER
FSS: MONTGOMERY COUNTY FLIGHT SERVICE STATION
FOR FP FILING CALL CXO FSS 1-800-992-7433.
NOTAMs facility: CXO (NOTAM-D service available)
Attendance: 0800-1800
Wind indicator: lighted
Segmented circle: yes
Lights: ACTVT MIRL RY 16/34 - CTAF.
Beacon: white-green (lighted land airport)
Operates sunset to sunrise.

Airport Communications

CTAF: 122.9
HOUSTON APPROACH: 119.7
HOUSTON DEPARTURE: 119.7
BORRN DP: 119.7
DREMR DP: 119.7
INDIE DP: 119.7
KARRR DP: 119.7
LURIC DP: 119.7
MMALT DP: 119.7
STRYA DP: 119.7
STYCK DP: 119.7
WATFO DP: 119.7
WYLSN DP: 119.7

Nearby radio navigation aids

VOR radial/distance  VOR name  Freq  Var
DASr197/7.3DAISETTA VORTAC116.9005E
MHFr358/32.0TRINITY VOR/DME113.6007E
IAHr073/34.4HUMBLE VORTAC116.6005E
BPTr276/36.3BEAUMONT VOR/DME114.5007E
HUBr045/39.3HOBBY VOR/DME117.1005E

 
NDB name  Hdg/Dist  Freq  Var  ID
GOODHUE264/25.336807EGDE --. -.. .
NIXIN074/27.332605EBVP -... ...- .--.
HARDIN COUNTY232/27.552404EHRD .... .-. -..
SANJAC033/31.234705EJPA .--- .--. .-

Airport Services

Fuel available: 100LL JET-A
24 HR SELF-SERVICE FUEL.
Parking: tiedowns
Airframe service: MAJOR
Powerplant service: MAJOR
Bottled oxygen: NONE
Bulk oxygen: NONE

Runway Information

Runway 16/34

Dimensions: 3801 x 75 ft. / 1159 x 23 m
Surface: asphalt, in fair condition
Weight bearing capacity: 
Single wheel: 10.0
Runway edge lights: medium intensity
RUNWAY 16  RUNWAY 34
Latitude: 30-04.971517N30-04.363658N
Longitude: 094-42.001210W094-41.824053W
Elevation: 68.9 ft.68.6 ft.
Traffic pattern: leftleft
Runway heading: 161 magnetic, 166 true341 magnetic, 346 true
Markings: nonprecision, in fair conditionnonprecision, in fair condition
Visual slope indicator: 2-light PAPI on left (3.00 degrees glide path)
Touchdown point: yes, no lightsyes, no lights
Obstructions: 51 ft. trees, 200 ft. from runway, 215 ft. right of centerline
+57 FT TREES 215 FT RT OF RY CENTERLINE FM THLD TO 200 FT.
67 ft. trees, 1248 ft. from runway, 15:1 slope to clear

Airport Ownership and Management from official FAA records

Ownership: Publicly-owned
Owner: CITY OF LIBERTY
1829 SAM HOUSTON
LIBERTY, TX 77575
Phone 936-587-4150
Manager: PHIL ROBERTSON
1829 SAM HOUSTON
LIBERTY, TX 77575
Phone (281) 660-2337

Airport Operational Statistics

Aircraft based on the field: 28
Single engine airplanes: 24
Multi engine airplanes: 2
Ultralights: 2
    
Aircraft operations: avg 120/week *
58% transient general aviation
41% local general aviation
<1% military
* for 12-month period ending 14 November 2016

Additional Remarks

FOR CD CTC HOUSTON APCH AT 281-443-5844 TO CNL IFR CALL 281-443-5888.

Instrument Procedures

NOTE: All procedures below are presented as PDF files. If you need a reader for these files, you should download the free Adobe Reader.

NOT FOR NAVIGATION. Please procure official charts for flight.
FAA instrument procedures published for use between 9 November 2017 at 0901Z and 7 December 2017 at 0900Z.

 
STARs - Standard Terminal Arrivals
HUDZY THREE   2 pages: [1] [2] (326KB)
OHIIO FOUR   download (296KB)
RIICE EIGHT   2 pages: [1] [2] (548KB)
WHAEL THREE   download (158KB)
 
IAPs - Instrument Approach Procedures
RNAV (GPS) RWY 16   download (139KB)
VOR-A   download (127KB)
 
Departure Procedures
BLTWY FOUR (RNAV)   2 pages: [1] [2] (241KB)
BORRN THREE (RNAV)   2 pages: [1] [2] (337KB)
HOODO FIVE (RNAV)   2 pages: [1] [2] (295KB)
INDIE FIVE (RNAV)   2 pages: [1] [2] (267KB)
KARRR FOUR (RNAV)   2 pages: [1] [2] (284KB)
LURIC FIVE (RNAV)   2 pages: [1] [2] (292KB)
MMALT THREE (RNAV)   2 pages: [1] [2] (301KB)
STRYA FIVE (RNAV)   2 pages: [1] [2] (278KB)
STYCK FIVE (RNAV)   download (231KB)
WATFO FOUR (RNAV)   download (218KB)
WYLSN FIVE (RNAV)   2 pages: [1] [2] (256KB)
NOTE: Special Take-Off Minimums/Departure Procedures apply   download

Other nearby airports with instrument procedures:

T00 - Chambers County Airport (19 nm S)
54T - RWJ Airpark (20 nm S)
KHPY - Baytown Airport (22 nm SW)
6R3 - Cleveland Municipal Airport (23 nm NW)
KBMT - Beaumont Municipal Airport (25 nm E)
 
Loc | Ops | Rwys | IFR | FBO | Links
Com | Nav | Svcs | Stats | Notes


 
Area around T78 (Liberty Municipal Airport)
 
Road maps at: MapQuest Bing Google
 
Aerial photo
WARNING: Photo may not be current or correct
Aerial photo of T78 (Liberty Municipal Airport)
Photo by David Lawrence flying a 78 Bellanca/17-30A
Photo taken 08-Nov-2014
looking north.

Do you have a better or more recent aerial photo of Liberty Municipal Airport that you would like to share? If so, please send us your photo.

 
Sectional chart

 
Airport diagram
CAUTION: Diagram may not be current
Diagram of T78 (Liberty Municipal Airport)
 
Airport distance calculator
Flying to Liberty Municipal Airport? Find the distance to fly.

From to T78

Sunrise and sunset
Times for 21-Nov-2017
 Local
(UTC-6)
 Zulu
(UTC)
Morning civil twilight06:2412:24
Sunrise06:5012:50
Sunset17:1923:19
Evening civil twilight17:4523:45

Current date and time
Zulu (UTC)  21-Nov-2017 15:18:09
Local (UTC-6)  21-Nov-2017 09:18:09
 
METAR
K6R3 
23nm NW 
211455Z AUTO 00000KT 7SM SCT015 BKN044 14/11 A2996 RMK AO2 T01380108
KBMT 
25nm E 
211455Z AUTO 07005KT 3SM RA SCT011 BKN026 OVC046 16/15 A2996 RMK AO2 T01620149
KIAH 
35nm W 
211453Z 13003KT 10SM FEW019 BKN035 BKN250 18/15 A2993 RMK AO2 SLP135 T01780150 53003
KBPT 
35nm E 
211504Z VRB04KT 9SM -RA BKN010 BKN019 OVC046 17/14 A2996 RMK AO2 RAB03 PRESRR P0000 T01720144
KEFD 
38nm SW 
211450Z 10003KT 10SM SCT017 BKN250 19/18 A2995
KHOU 
40nm SW 
211453Z 13003KT 10SM BKN016 BKN250 19/18 A2993 RMK AO2 SLP139 T01940178 53004
KCXO 
41nm NW 
211453Z 00000KT 10SM FEW018 15/13 A2994 RMK AO2 SLP138 T01500133 53005
KDWH 
44nm W 
211453Z 11003KT 10SM CLR 17/13 A2994 RMK AO2 SLP136 T01670133 53003
KLVJ 
44nm SW 
211453Z AUTO 00000KT 10SM FEW046 SCT065 21/18 A2994 RMK AO2 SLP139 T02060178 53003
TAF
KIAH 
35nm W 
211301Z 2113/2218 12005KT P6SM BKN025 BKN040 BKN250 FM211600 16006KT P6SM BKN035 BKN250 FM211900 20005KT P6SM SCT035 BKN250 FM220000 02007KT P6SM VCSH BKN035 FM220900 36010G20KT P6SM BKN025 FM221500 01014G24KT P6SM SCT025
KBPT 
35nm E 
211141Z 2112/2212 11004KT P6SM VCSH BKN050 OVC070 FM211400 10009KT P6SM VCSH OVC025 FM211800 13009KT P6SM VCSH OVC015 FM220000 05008KT P6SM VCSH OVC015 FM220400 04006KT P6SM VCSH OVC007 FM220700 02014G21KT P6SM OVC007
KEFD 
38nm SW 
210400Z 2104/2210 10006KT 9999 FEW025 SCT060 BKN250 QNH3002INS BECMG 2105/2106 14006KT 9999 BKN025 BKN060 QNH2987INS BECMG 2200/2201 08009KT 8000 -SHRA BKN015 OVC200 QNH2992INS BECMG 2205/2206 04012KT 8000 -SHRA BKN010 OVC150 QNH3003INS TX22/2120Z TN13/2112Z
KHOU 
40nm SW 
211237Z 2113/2212 VRB04KT P6SM BKN040 FM211400 13005KT P6SM VCSH SCT020 BKN035 FM211800 22006KT P6SM BKN035 BKN250 FM220100 02008KT P6SM VCSH BKN015 FM220900 01012KT P6SM SCT008 BKN015
KCXO 
41nm NW 
211414Z 2114/2212 00000KT P6SM SCT018 FM211600 17006KT P6SM SCT025 BKN250 FM220000 36005KT P6SM BKN035 BKN250 FM220400 36008KT P6SM VCSH BKN025 FM221000 36009G19KT P6SM BKN015
NOTAMs
Click for the latest NOTAMs
NOTAMs are issued by the DoD/FAA and will open in a separate window not controlled by AirNav.

 

 
 

FBO, Fuel Providers, and Aircraft Ground Support

  
 Business Name 
 
 Contact 
 
 Services / Description 
 
Fuel Prices
 
Comments
  
Liberty Municipal Airport 281-660-2337
936-336-3684
[web site]
Aviation fuel, Aircraft parking (ramp or tiedown), Restrooms
More info and photos of Liberty Municipal Airport
independent
100LL Jet A
SS $3.40 $2.60 
 Updated 09-Oct-2017
 
   6 read write
SS=Self service
Update Fuel Prices
 

Would you like to see your business listed on this page?

 If your business provides an interesting product or service to pilots, flight crews, aircraft, or users of the Liberty Municipal Airport, you should consider listing it here.  To start the listing process, click on the button below
 
Add a business
 

Other Pages about Liberty Municipal Airport

www.cityofliberty.org/...
 
Update a link
 
Copyright © AirNav, LLC. All rights reserved. Privacy Policy  Contact